Language: 


Des rapports , des résumés tant et plus, au choix de chacun....


Données Historiques de Météogheer
Journalier Rapport pour Janvier 17, 2017 Unitée:  Les deux    Impériale   Métrique
Suivant Jour »
Journalier Hebdomadaire Mensuel Annuel Sur mesure
  Max: Min: Moyenne:
Température: 34 °F /  1.1 °C 27.9 °F /  -2.3 °C 29.7 °F /  -1.3 °C
Point de rosée: 31.8 °F /  -0.1 °C 26.4 °F /  -3.1 °C 28.2 °F /  -2.1 °C
Humidité: 98% 0% 94%
Vent: 6.7mph /  10.8km/h - 4mph /  6.4km/h
Rafales: 8.5mph /  13.7km/h - -
Vent- - ENE
Pression: 30.7 in /  1038.1 hPa 0 in /  0.0 hPa -
Pluie: 0 in /  0.0 mm    
Historical Graphs
 
 
Données tabulaires pour Janvier 17, 2017
Heure Température Point de rosée Pression Vent Vent Rafales Humidité Pluie Taux (Horaire) Conditions
00:01 31.1 °F /  -0.5 °C 30.6 °F /  -0.8 °C 30.4in /  1031.0hPa Calm   3.6mph /  5.8km/h 98% 0in /  0.0mm
00:06 30.9 °F /  -0.6 °C 30.4 °F /  -0.9 °C 30.4in /  1031.0hPa ENE 3.4mph /  5.5km/h 3.6mph /  5.8km/h 98% 0in /  0.0mm
00:11 30.7 °F /  -0.7 °C 30.4 °F /  -0.9 °C 30.4in /  1031.0hPa ENE 3.6mph /  5.8km/h 3.6mph /  5.8km/h 98% 0in /  0.0mm
00:16 30.7 °F /  -0.7 °C 30.4 °F /  -0.9 °C 30.4in /  1031.0hPa ENE 2.5mph /  4.0km/h 4mph /  6.4km/h 98% 0in /  0.0mm
00:21 30.6 °F /  -0.8 °C 30 °F /  -1.1 °C 30.4in /  1031.0hPa NE 3.4mph /  5.5km/h 4.3mph /  6.9km/h 98% 0in /  0.0mm
00:26 30.6 °F /  -0.8 °C 30 °F /  -1.1 °C 30.4in /  1031.0hPa ENE 2.7mph /  4.3km/h 4.3mph /  6.9km/h 98% 0in /  0.0mm
00:31 30.4 °F /  -0.9 °C 29.8 °F /  -1.2 °C 30.4in /  1031.0hPa ENE 2.5mph /  4.0km/h 4mph /  6.4km/h 98% 0in /  0.0mm
00:36 30.2 °F /  -1.0 °C 29.7 °F /  -1.3 °C 30.4in /  1031.0hPa ENE 2.5mph /  4.0km/h 4mph /  6.4km/h 98% 0in /  0.0mm
00:41 30.2 °F /  -1.0 °C 29.7 °F /  -1.3 °C 30.4in /  1031.0hPa ENE 4.3mph /  6.9km/h 4.3mph /  6.9km/h 98% 0in /  0.0mm
00:46 30 °F /  -1.1 °C 29.7 °F /  -1.3 °C 30.4in /  1031.0hPa ENE 2.2mph /  3.5km/h 4.3mph /  6.9km/h 98% 0in /  0.0mm
00:51 29.8 °F /  -1.2 °C 29.5 °F /  -1.4 °C 30.4in /  1031.0hPa Calm   4.3mph /  6.9km/h 98% 0in /  0.0mm
00:56 29.7 °F /  -1.3 °C 29.1 °F /  -1.6 °C 30.4in /  1031.0hPa Calm   3.1mph /  5.0km/h 98% 0in /  0.0mm
01:01 29.7 °F /  -1.3 °C 29.1 °F /  -1.6 °C 30.4in /  1031.0hPa ENE 2.9mph /  4.7km/h 3.4mph /  5.5km/h 98% 0in /  0.0mm
01:06 29.7 °F /  -1.3 °C 29.1 °F /  -1.6 °C 30.4in /  1031.0hPa East 2.5mph /  4.0km/h 3.4mph /  5.5km/h 98% 0in /  0.0mm
01:11 29.7 °F /  -1.3 °C 29.1 °F /  -1.6 °C 30.4in /  1031.0hPa East 2.7mph /  4.3km/h 3.4mph /  5.5km/h 98% 0in /  0.0mm
01:16 29.5 °F /  -1.4 °C 28.9 °F /  -1.7 °C 30.4in /  1031.0hPa ENE 2.7mph /  4.3km/h 4.3mph /  6.9km/h 98% 0in /  0.0mm
01:21 29.5 °F /  -1.4 °C 28.9 °F /  -1.7 °C 30.4in /  1031.0hPa East 3.1mph /  5.0km/h 4.3mph /  6.9km/h 98% 0in /  0.0mm
01:26 29.5 °F /  -1.4 °C 28.9 °F /  -1.7 °C 30.4in /  1031.0hPa Calm   3.8mph /  6.1km/h 98% 0in /  0.0mm
01:31 29.5 °F /  -1.4 °C 28.9 °F /  -1.7 °C 30.4in /  1031.0hPa ENE 3.1mph /  5.0km/h 3.8mph /  6.1km/h 98% 0in /  0.0mm
01:36 29.5 °F /  -1.4 °C 28.9 °F /  -1.7 °C 30.4in /  1031.0hPa ENE 2.9mph /  4.7km/h 3.4mph /  5.5km/h 98% 0in /  0.0mm
01:41 29.5 °F /  -1.4 °C 28.9 °F /  -1.7 °C 30.4in /  1031.0hPa ENE 2.9mph /  4.7km/h 3.6mph /  5.8km/h 98% 0in /  0.0mm
01:46 29.5 °F /  -1.4 °C 28.9 °F /  -1.7 °C 30.4in /  1031.0hPa East 2.5mph /  4.0km/h 4mph /  6.4km/h 98% 0in /  0.0mm
01:51 29.5 °F /  -1.4 °C 28.9 °F /  -1.7 °C 30.4in /  1031.0hPa ENE 2.7mph /  4.3km/h 4mph /  6.4km/h 98% 0in /  0.0mm
01:56 29.1 °F /  -1.6 °C 28.8 °F /  -1.8 °C 30.4in /  1031.0hPa ENE 2.7mph /  4.3km/h 3.6mph /  5.8km/h 98% 0in /  0.0mm
02:02 32 °F /  0.0 °C 28.6 °F /  -1.9 °C 0in /  0.0hPa ENE 2.2mph /  3.5km/h 2.9mph /  4.7km/h 0% 0in /  0.0mm
02:07 28.8 °F /  -1.8 °C 28.2 °F /  -2.1 °C 30.4in /  1031.0hPa NE 1.6mph /  2.6km/h 3.1mph /  5.0km/h 98% 0in /  0.0mm
02:12 28.6 °F /  -1.9 °C 28.2 °F /  -2.1 °C 30.4in /  1031.0hPa NE 2.5mph /  4.0km/h 3.1mph /  5.0km/h 98% 0in /  0.0mm
02:17 28.6 °F /  -1.9 °C 28.2 °F /  -2.1 °C 30.4in /  1031.0hPa NE 3.1mph /  5.0km/h 3.8mph /  6.1km/h 98% 0in /  0.0mm
02:22 28.6 °F /  -1.9 °C 28.2 °F /  -2.1 °C 30.5in /  1032.1hPa ENE 3.1mph /  5.0km/h 3.8mph /  6.1km/h 98% 0in /  0.0mm
02:27 28.6 °F /  -1.9 °C 28.2 °F /  -2.1 °C 30.5in /  1032.1hPa East 2.9mph /  4.7km/h 4mph /  6.4km/h 98% 0in /  0.0mm
02:32 28.6 °F /  -1.9 °C 28 °F /  -2.2 °C 30.5in /  1032.1hPa East 2.5mph /  4.0km/h 4mph /  6.4km/h 98% 0in /  0.0mm
02:37 28.6 °F /  -1.9 °C 28 °F /  -2.2 °C 30.5in /  1032.1hPa ENE 2.5mph /  4.0km/h 3.1mph /  5.0km/h 98% 0in /  0.0mm
02:42 28.2 °F /  -2.1 °C 27.9 °F /  -2.3 °C 30.5in /  1032.1hPa ENE 2.9mph /  4.7km/h 3.6mph /  5.8km/h 98% 0in /  0.0mm
02:47 28.2 °F /  -2.1 °C 27.9 °F /  -2.3 °C 30.5in /  1032.1hPa ENE 2.7mph /  4.3km/h 3.6mph /  5.8km/h 98% 0in /  0.0mm
02:52 28.2 °F /  -2.1 °C 27.9 °F /  -2.3 °C 30.5in /  1032.1hPa NE 3.1mph /  5.0km/h 3.6mph /  5.8km/h 98% 0in /  0.0mm
02:57 28.2 °F /  -2.1 °C 27.9 °F /  -2.3 °C 30.5in /  1032.1hPa ENE 3.4mph /  5.5km/h 4mph /  6.4km/h 98% 0in /  0.0mm
03:02 28.2 °F /  -2.1 °C 27.9 °F /  -2.3 °C 30.5in /  1032.1hPa NE 3.4mph /  5.5km/h 4mph /  6.4km/h 98% 0in /  0.0mm
03:07 28.2 °F /  -2.1 °C 27.9 °F /  -2.3 °C 30.5in /  1033.1hPa NE 3.1mph /  5.0km/h 4.2mph /  6.8km/h 98% 0in /  0.0mm
03:12 28.2 °F /  -2.1 °C 27.9 °F /  -2.3 °C 30.5in /  1033.1hPa ENE 3.8mph /  6.1km/h 4.5mph /  7.2km/h 98% 0in /  0.0mm
03:17 28.2 °F /  -2.1 °C 27.9 °F /  -2.3 °C 30.5in /  1033.1hPa ENE 3.6mph /  5.8km/h 4.9mph /  7.9km/h 98% 0in /  0.0mm
03:22 28.2 °F /  -2.1 °C 27.9 °F /  -2.3 °C 30.5in /  1033.1hPa East 3.1mph /  5.0km/h 4.9mph /  7.9km/h 98% 0in /  0.0mm
03:27 28 °F /  -2.2 °C 27.7 °F /  -2.4 °C 30.5in /  1033.1hPa NE 3.4mph /  5.5km/h 4.5mph /  7.2km/h 98% 0in /  0.0mm
03:32 28 °F /  -2.2 °C 27.7 °F /  -2.4 °C 30.5in /  1033.1hPa ENE 2.5mph /  4.0km/h 3.8mph /  6.1km/h 98% 0in /  0.0mm
03:37 28 °F /  -2.2 °C 27.7 °F /  -2.4 °C 30.5in /  1033.1hPa ENE 4mph /  6.4km/h 4.3mph /  6.9km/h 98% 0in /  0.0mm
03:42 28.2 °F /  -2.1 °C 27.9 °F /  -2.3 °C 30.5in /  1033.1hPa NE 3.8mph /  6.1km/h 5.6mph /  9.0km/h 98% 0in /  0.0mm
03:47 28.2 °F /  -2.1 °C 27.9 °F /  -2.3 °C 30.5in /  1033.1hPa NE 4.3mph /  6.9km/h 6.3mph /  10.1km/h 98% 0in /  0.0mm
03:52 28.6 °F /  -1.9 °C 28 °F /  -2.2 °C 30.5in /  1033.1hPa ENE 3.8mph /  6.1km/h 6.3mph /  10.1km/h 98% 0in /  0.0mm
03:57 28.6 °F /  -1.9 °C 28.2 °F /  -2.1 °C 30.5in /  1033.1hPa East 4.9mph /  7.9km/h 6mph /  9.7km/h 98% 0in /  0.0mm
04:02 28.6 °F /  -1.9 °C 28.2 °F /  -2.1 °C 30.5in /  1033.1hPa East 6mph /  9.7km/h 6.5mph /  10.5km/h 98% 0in /  0.0mm
04:07 28.6 °F /  -1.9 °C 28.2 °F /  -2.1 °C 30.5in /  1033.1hPa East 3.6mph /  5.8km/h 6.5mph /  10.5km/h 98% 0in /  0.0mm
04:12 28.8 °F /  -1.8 °C 28.2 °F /  -2.1 °C 30.5in /  1033.1hPa ENE 3.8mph /  6.1km/h 6.3mph /  10.1km/h 98% 0in /  0.0mm
04:17 28.8 °F /  -1.8 °C 28.2 °F /  -2.1 °C 30.5in /  1033.1hPa East 3.4mph /  5.5km/h 6.5mph /  10.5km/h 98% 0in /  0.0mm
04:22 28.6 °F /  -1.9 °C 28.2 °F /  -2.1 °C 30.5in /  1033.1hPa East 4.9mph /  7.9km/h 6.5mph /  10.5km/h 98% 0in /  0.0mm
04:27 28.6 °F /  -1.9 °C 28.2 °F /  -2.1 °C 30.5in /  1033.1hPa East 5.4mph /  8.7km/h 8.5mph /  13.7km/h 98% 0in /  0.0mm
04:32 28.6 °F /  -1.9 °C 28.2 °F /  -2.1 °C 30.5in /  1033.1hPa ESE 4.3mph /  6.9km/h 8.5mph /  13.7km/h 98% 0in /  0.0mm
04:37 28.6 °F /  -1.9 °C 28.2 °F /  -2.1 °C 30.5in /  1033.1hPa ESE 3.1mph /  5.0km/h 7.8mph /  12.6km/h 98% 0in /  0.0mm
04:42 28.6 °F /  -1.9 °C 28.2 °F /  -2.1 °C 30.5in /  1033.1hPa East 5.8mph /  9.3km/h 6.3mph /  10.1km/h 98% 0in /  0.0mm
04:47 28.6 °F /  -1.9 °C 28.2 °F /  -2.1 °C 30.5in /  1033.1hPa East 2.9mph /  4.7km/h 7.4mph /  11.9km/h 98% 0in /  0.0mm
04:52 28.6 °F /  -1.9 °C 28.2 °F /  -2.1 °C 30.5in /  1033.1hPa NE 3.1mph /  5.0km/h 7.4mph /  11.9km/h 98% 0in /  0.0mm
04:58 28.6 °F /  -1.9 °C 28.2 °F /  -2.1 °C 30.5in /  1033.1hPa ENE 6.3mph /  10.1km/h 7.2mph /  11.6km/h 98% 0in /  0.0mm
05:03 28.6 °F /  -1.9 °C 28.2 °F /  -2.1 °C 30.5in /  1033.1hPa East 3.1mph /  5.0km/h 7.2mph /  11.6km/h 98% 0in /  0.0mm
05:08 28.6 °F /  -1.9 °C 28.2 °F /  -2.1 °C 30.5in /  1033.1hPa ESE 3.8mph /  6.1km/h 6mph /  9.7km/h 98% 0in /  0.0mm
05:13 28.6 °F /  -1.9 °C 28.2 °F /  -2.1 °C 30.5in /  1033.1hPa SE 5.6mph /  9.0km/h 6mph /  9.7km/h 98% 0in /  0.0mm
05:18 28.6 °F /  -1.9 °C 28.2 °F /  -2.1 °C 30.5in /  1033.1hPa East 5.6mph /  9.0km/h 5.8mph /  9.3km/h 98% 0in /  0.0mm
05:23 28.6 °F /  -1.9 °C 28.2 °F /  -2.1 °C 30.5in /  1033.1hPa East 6.3mph /  10.1km/h 8.1mph /  13.0km/h 98% 0in /  0.0mm
05:28 28.6 °F /  -1.9 °C 28 °F /  -2.2 °C 30.5in /  1033.1hPa East 4.3mph /  6.9km/h 8.1mph /  13.0km/h 98% 0in /  0.0mm
05:33 28.6 °F /  -1.9 °C 28 °F /  -2.2 °C 30.5in /  1033.1hPa ESE 6.7mph /  10.8km/h 7.6mph /  12.2km/h 98% 0in /  0.0mm
05:38 28.6 °F /  -1.9 °C 28 °F /  -2.2 °C 30.5in /  1033.1hPa ESE 3.6mph /  5.8km/h 7.6mph /  12.2km/h 98% 0in /  0.0mm
05:43 28.6 °F /  -1.9 °C 28 °F /  -2.2 °C 30.5in /  1033.1hPa ENE 3.1mph /  5.0km/h 7.2mph /  11.6km/h 98% 0in /  0.0mm
05:48 28.2 °F /  -2.1 °C 27.9 °F /  -2.3 °C 30.5in /  1033.1hPa ENE 4.9mph /  7.9km/h 6.5mph /  10.5km/h 98% 0in /  0.0mm
05:53 28.6 °F /  -1.9 °C 28 °F /  -2.2 °C 30.5in /  1033.1hPa NE 4.3mph /  6.9km/h 6.5mph /  10.5km/h 98% 0in /  0.0mm
05:58 28.2 °F /  -2.1 °C 27.9 °F /  -2.3 °C 30.5in /  1033.1hPa East 6mph /  9.7km/h 6.5mph /  10.5km/h 98% 0in /  0.0mm
06:03 28.2 °F /  -2.1 °C 27.9 °F /  -2.3 °C 30.5in /  1033.1hPa ESE 4.7mph /  7.6km/h 6.5mph /  10.5km/h 98% 0in /  0.0mm
06:08 28.2 °F /  -2.1 °C 27.9 °F /  -2.3 °C 30.5in /  1033.1hPa East 2.9mph /  4.7km/h 6.5mph /  10.5km/h 98% 0in /  0.0mm
06:13 28.2 °F /  -2.1 °C 27.9 °F /  -2.3 °C 30.5in /  1033.1hPa ENE 4.3mph /  6.9km/h 6.7mph /  10.8km/h 98% 0in /  0.0mm
06:18 28.6 °F /  -1.9 °C 28 °F /  -2.2 °C 30.5in /  1033.1hPa East 5.6mph /  9.0km/h 7.6mph /  12.2km/h 98% 0in /  0.0mm
06:23 28.2 °F /  -2.1 °C 27.9 °F /  -2.3 °C 30.5in /  1033.1hPa ESE 3.6mph /  5.8km/h 7.8mph /  12.6km/h 98% 0in /  0.0mm
06:28 28 °F /  -2.2 °C 27.7 °F /  -2.4 °C 30.5in /  1033.1hPa East 4mph /  6.4km/h 7.8mph /  12.6km/h 98% 0in /  0.0mm
06:33 27.9 °F /  -2.3 °C 27.5 °F /  -2.5 °C 30.5in /  1033.1hPa East 4.3mph /  6.9km/h 6.7mph /  10.8km/h 98% 0in /  0.0mm
06:38 27.9 °F /  -2.3 °C 27.5 °F /  -2.5 °C 30.5in /  1033.1hPa East 3.6mph /  5.8km/h 5.8mph /  9.3km/h 98% 0in /  0.0mm
06:43 27.9 °F /  -2.3 °C 27.5 °F /  -2.5 °C 30.5in /  1033.1hPa East 4.9mph /  7.9km/h 6.7mph /  10.8km/h 98% 0in /  0.0mm
06:48 27.9 °F /  -2.3 °C 27.5 °F /  -2.5 °C 30.5in /  1033.1hPa East 3.1mph /  5.0km/h 6.7mph /  10.8km/h 98% 0in /  0.0mm
06:53 27.9 °F /  -2.3 °C 27.5 °F /  -2.5 °C 30.5in /  1033.1hPa SE 2.5mph /  4.0km/h 6mph /  9.7km/h 98% 0in /  0.0mm
06:58 27.9 °F /  -2.3 °C 27.5 °F /  -2.5 °C 30.5in /  1033.1hPa SE 1.6mph /  2.6km/h 6mph /  9.7km/h 98% 0in /  0.0mm
07:03 27.9 °F /  -2.3 °C 27.5 °F /  -2.5 °C 30.5in /  1033.1hPa East 3.1mph /  5.0km/h 4.9mph /  7.9km/h 98% 0in /  0.0mm
07:08 27.9 °F /  -2.3 °C 27.5 °F /  -2.5 °C 30.5in /  1034.1hPa SE 3.1mph /  5.0km/h 3.6mph /  5.8km/h 98% 0in /  0.0mm
07:13 27.9 °F /  -2.3 °C 27.5 °F /  -2.5 °C 30.5in /  1034.1hPa ESE 6.3mph /  10.1km/h 7.4mph /  11.9km/h 98% 0in /  0.0mm
07:18 27.9 °F /  -2.3 °C 27.5 °F /  -2.5 °C 30.5in /  1034.1hPa ENE 3.6mph /  5.8km/h 7.4mph /  11.9km/h 98% 0in /  0.0mm
07:23 27.9 °F /  -2.3 °C 27.5 °F /  -2.5 °C 30.5in /  1034.1hPa ENE 4.9mph /  7.9km/h 6.5mph /  10.5km/h 98% 0in /  0.0mm
07:28 27.9 °F /  -2.3 °C 27.5 °F /  -2.5 °C 30.5in /  1034.1hPa SE 3.4mph /  5.5km/h 6.5mph /  10.5km/h 98% 0in /  0.0mm
07:33 27.9 °F /  -2.3 °C 27.5 °F /  -2.5 °C 30.5in /  1034.1hPa ESE 4.5mph /  7.2km/h 6.3mph /  10.1km/h 98% 0in /  0.0mm
07:38 27.9 °F /  -2.3 °C 27.5 °F /  -2.5 °C 30.5in /  1034.1hPa SE 5.6mph /  9.0km/h 6.3mph /  10.1km/h 98% 0in /  0.0mm
07:43 27.9 °F /  -2.3 °C 27.5 °F /  -2.5 °C 30.5in /  1034.1hPa SE 1.3mph /  2.1km/h 6mph /  9.7km/h 98% 0in /  0.0mm
07:48 27.9 °F /  -2.3 °C 27.5 °F /  -2.5 °C 30.5in /  1034.1hPa SSE 4mph /  6.4km/h 5.6mph /  9.0km/h 98% 0in /  0.0mm
07:53 27.9 °F /  -2.3 °C 27.5 °F /  -2.5 °C 30.5in /  1034.1hPa ESE 3.1mph /  5.0km/h 4.7mph /  7.6km/h 98% 0in /  0.0mm
07:58 27.9 °F /  -2.3 °C 27.5 °F /  -2.5 °C 30.5in /  1034.1hPa ESE 5.4mph /  8.7km/h 6mph /  9.7km/h 98% 0in /  0.0mm
08:03 27.9 °F /  -2.3 °C 27.5 °F /  -2.5 °C 30.5in /  1034.1hPa East 2.2mph /  3.5km/h 6mph /  9.7km/h 98% 0in /  0.0mm
08:08 27.9 °F /  -2.3 °C 27.5 °F /  -2.5 °C 30.6in /  1035.1hPa ESE 5.8mph /  9.3km/h 6.5mph /  10.5km/h 98% 0in /  0.0mm
08:13 27.9 °F /  -2.3 °C 27.5 °F /  -2.5 °C 30.6in /  1035.1hPa SE 3.8mph /  6.1km/h 6.5mph /  10.5km/h 98% 0in /  0.0mm
08:18 27.9 °F /  -2.3 °C 27.5 °F /  -2.5 °C 30.6in /  1035.1hPa ESE 2mph /  3.2km/h 4.9mph /  7.9km/h 98% 0in /  0.0mm
08:23 27.9 °F /  -2.3 °C 27.5 °F /  -2.5 °C 30.6in /  1035.1hPa East 1.3mph /  2.1km/h 6.3mph /  10.1km/h 98% 0in /  0.0mm
08:28 27.9 °F /  -2.3 °C 27.5 °F /  -2.5 °C 30.6in /  1035.1hPa ESE 1.1mph /  1.8km/h 6.3mph /  10.1km/h 98% 0in /  0.0mm
08:33 27.9 °F /  -2.3 °C 27.5 °F /  -2.5 °C 30.6in /  1035.1hPa East 1.6mph /  2.6km/h 2.7mph /  4.3km/h 98% 0in /  0.0mm
08:38 27.9 °F /  -2.3 °C 27.5 °F /  -2.5 °C 30.6in /  1035.1hPa East 2.9mph /  4.7km/h 4.7mph /  7.6km/h 98% 0in /  0.0mm
08:43 27.9 °F /  -2.3 °C 27.5 °F /  -2.5 °C 30.6in /  1035.1hPa East 2.9mph /  4.7km/h 4.7mph /  7.6km/h 98% 0in /  0.0mm
08:48 27.9 °F /  -2.3 °C 27.5 °F /  -2.5 °C 30.6in /  1035.1hPa ENE 3.6mph /  5.8km/h 3.6mph /  5.8km/h 98% 0in /  0.0mm
08:53 28 °F /  -2.2 °C 27.7 °F /  -2.4 °C 30.6in /  1035.1hPa ESE 3.6mph /  5.8km/h 4mph /  6.4km/h 98% 0in /  0.0mm
08:58 28 °F /  -2.2 °C 27.7 °F /  -2.4 °C 30.6in /  1035.1hPa ENE 3.4mph /  5.5km/h 4mph /  6.4km/h 98% 0in /  0.0mm
09:03 28 °F /  -2.2 °C 27.7 °F /  -2.4 °C 30.6in /  1035.1hPa NE 3.4mph /  5.5km/h 4.3mph /  6.9km/h 98% 0in /  0.0mm
09:08 28.2 °F /  -2.1 °C 27.9 °F /  -2.3 °C 30.6in /  1035.1hPa NE 5.8mph /  9.3km/h 6mph /  9.7km/h 98% 0in /  0.0mm
09:13 28.2 °F /  -2.1 °C 27.9 °F /  -2.3 °C 30.6in /  1035.1hPa NE 3.6mph /  5.8km/h 6.5mph /  10.5km/h 98% 0in /  0.0mm
09:18 28.2 °F /  -2.1 °C 27.9 °F /  -2.3 °C 30.6in /  1035.1hPa East 3.4mph /  5.5km/h 7.8mph /  12.6km/h 98% 0in /  0.0mm
09:23 28 °F /  -2.2 °C 27.7 °F /  -2.4 °C 30.6in /  1035.1hPa East 4.9mph /  7.9km/h 7.8mph /  12.6km/h 98% 0in /  0.0mm
09:28 28 °F /  -2.2 °C 27.7 °F /  -2.4 °C 30.6in /  1035.1hPa ENE 3.6mph /  5.8km/h 6.3mph /  10.1km/h 98% 0in /  0.0mm
09:33 27.9 °F /  -2.3 °C 27.5 °F /  -2.5 °C 30.6in /  1035.1hPa East 4.3mph /  6.9km/h 6.5mph /  10.5km/h 98% 0in /  0.0mm
09:38 27.9 °F /  -2.3 °C 27.5 °F /  -2.5 °C 30.6in /  1035.1hPa ESE 3.4mph /  5.5km/h 6.5mph /  10.5km/h 98% 0in /  0.0mm
09:43 28 °F /  -2.2 °C 27.7 °F /  -2.4 °C 30.6in /  1035.1hPa ENE 6mph /  9.7km/h 7.2mph /  11.6km/h 98% 0in /  0.0mm
09:48 28 °F /  -2.2 °C 27.7 °F /  -2.4 °C 30.6in /  1035.1hPa NE 5.6mph /  9.0km/h 7.2mph /  11.6km/h 98% 0in /  0.0mm
09:53 28 °F /  -2.2 °C 27.7 °F /  -2.4 °C 30.6in /  1035.1hPa ESE 4.3mph /  6.9km/h 8.1mph /  13.0km/h 98% 0in /  0.0mm
09:58 28 °F /  -2.2 °C 27.7 °F /  -2.4 °C 30.6in /  1035.1hPa East 4.3mph /  6.9km/h 8.1mph /  13.0km/h 98% 0in /  0.0mm
10:03 28.2 °F /  -2.1 °C 27.9 °F /  -2.3 °C 30.6in /  1035.1hPa East 4.3mph /  6.9km/h 6.5mph /  10.5km/h 98% 0in /  0.0mm
10:08 28.6 °F /  -1.9 °C 28.2 °F /  -2.1 °C 30.6in /  1035.1hPa ESE 4.9mph /  7.9km/h 6.5mph /  10.5km/h 98% 0in /  0.0mm
10:13 28.6 °F /  -1.9 °C 28.2 °F /  -2.1 °C 30.6in /  1035.1hPa East 3.8mph /  6.1km/h 6.3mph /  10.1km/h 98% 0in /  0.0mm
10:18 28.6 °F /  -1.9 °C 28.2 °F /  -2.1 °C 30.6in /  1035.1hPa NE 3.4mph /  5.5km/h 6mph /  9.7km/h 98% 0in /  0.0mm
10:23 28.6 °F /  -1.9 °C 28 °F /  -2.2 °C 30.6in /  1036.1hPa East 3.6mph /  5.8km/h 4.9mph /  7.9km/h 98% 0in /  0.0mm
10:28 28.6 °F /  -1.9 °C 28 °F /  -2.2 °C 30.6in /  1036.1hPa ENE 3.1mph /  5.0km/h 5.8mph /  9.3km/h 98% 0in /  0.0mm
10:33 28.6 °F /  -1.9 °C 27.9 °F /  -2.3 °C 30.6in /  1036.1hPa ENE 4mph /  6.4km/h 5.8mph /  9.3km/h 97% 0in /  0.0mm
10:38 28.9 °F /  -1.7 °C 28.2 °F /  -2.1 °C 30.6in /  1036.1hPa East 5.6mph /  9.0km/h 6.3mph /  10.1km/h 97% 0in /  0.0mm
10:43 29.1 °F /  -1.6 °C 28.4 °F /  -2.0 °C 30.6in /  1036.1hPa East 3.6mph /  5.8km/h 6.3mph /  10.1km/h 97% 0in /  0.0mm
10:48 29.5 °F /  -1.4 °C 28.6 °F /  -1.9 °C 30.6in /  1036.1hPa East 6.3mph /  10.1km/h 6.3mph /  10.1km/h 97% 0in /  0.0mm
10:53 29.5 °F /  -1.4 °C 28.8 °F /  -1.8 °C 30.6in /  1036.1hPa ENE 4.3mph /  6.9km/h 6.3mph /  10.1km/h 97% 0in /  0.0mm
10:58 29.5 °F /  -1.4 °C 28.8 °F /  -1.8 °C 30.6in /  1036.1hPa ESE 5.4mph /  8.7km/h 7.2mph /  11.6km/h 97% 0in /  0.0mm
11:03 29.5 °F /  -1.4 °C 28.8 °F /  -1.8 °C 30.6in /  1036.1hPa East 4.3mph /  6.9km/h 7.4mph /  11.9km/h 97% 0in /  0.0mm
11:08 29.7 °F /  -1.3 °C 28.9 °F /  -1.7 °C 30.6in /  1036.1hPa NE 4.7mph /  7.6km/h 7.4mph /  11.9km/h 97% 0in /  0.0mm
11:13 29.8 °F /  -1.2 °C 29.1 °F /  -1.6 °C 30.6in /  1036.1hPa East 2mph /  3.2km/h 6.5mph /  10.5km/h 97% 0in /  0.0mm
11:18 30 °F /  -1.1 °C 29.3 °F /  -1.5 °C 30.6in /  1036.1hPa ENE 3.4mph /  5.5km/h 6.5mph /  10.5km/h 97% 0in /  0.0mm
11:23 30.2 °F /  -1.0 °C 29.5 °F /  -1.4 °C 30.6in /  1037.1hPa East 4.9mph /  7.9km/h 4.9mph /  7.9km/h 97% 0in /  0.0mm
11:28 30.2 °F /  -1.0 °C 29.5 °F /  -1.4 °C 30.6in /  1037.1hPa ESE 3.8mph /  6.1km/h 6.5mph /  10.5km/h 97% 0in /  0.0mm
11:33 30 °F /  -1.1 °C 29.3 °F /  -1.5 °C 30.6in /  1037.1hPa ENE 4mph /  6.4km/h 6.5mph /  10.5km/h 97% 0in /  0.0mm
11:38 29.8 °F /  -1.2 °C 28.9 °F /  -1.7 °C 30.6in /  1037.1hPa ENE 4.3mph /  6.9km/h 5.8mph /  9.3km/h 96% 0in /  0.0mm
11:43 30.2 °F /  -1.0 °C 29.1 °F /  -1.6 °C 30.6in /  1037.1hPa ENE 4.7mph /  7.6km/h 6.9mph /  11.1km/h 96% 0in /  0.0mm
11:48 30.4 °F /  -0.9 °C 29.5 °F /  -1.4 °C 30.6in /  1037.1hPa East 4.7mph /  7.6km/h 6.9mph /  11.1km/h 96% 0in /  0.0mm
11:53 30.6 °F /  -0.8 °C 29.7 °F /  -1.3 °C 30.6in /  1036.1hPa ENE 4.3mph /  6.9km/h 5.8mph /  9.3km/h 96% 0in /  0.0mm
11:58 30.7 °F /  -0.7 °C 29.8 °F /  -1.2 °C 30.6in /  1036.1hPa NE 3.6mph /  5.8km/h 5.8mph /  9.3km/h 96% 0in /  0.0mm
12:04 30.7 °F /  -0.7 °C 29.8 °F /  -1.2 °C 30.6in /  1036.1hPa East 3.8mph /  6.1km/h 5.6mph /  9.0km/h 96% 0in /  0.0mm
12:09 31.5 °F /  -0.3 °C 30.6 °F /  -0.8 °C 30.6in /  1037.1hPa ESE 4.3mph /  6.9km/h 6mph /  9.7km/h 96% 0in /  0.0mm
12:14 31.5 °F /  -0.3 °C 30.6 °F /  -0.8 °C 30.6in /  1037.1hPa East 3.4mph /  5.5km/h 6.3mph /  10.1km/h 96% 0in /  0.0mm
12:19 31.8 °F /  -0.1 °C 30.6 °F /  -0.8 °C 30.6in /  1037.1hPa East 3.6mph /  5.8km/h 7.2mph /  11.6km/h 95% 0in /  0.0mm
12:24 32.2 °F /  0.1 °C 30.9 °F /  -0.6 °C 30.6in /  1036.1hPa ESE 3.6mph /  5.8km/h 7.2mph /  11.6km/h 95% 0in /  0.0mm
12:29 32.2 °F /  0.1 °C 30.6 °F /  -0.8 °C 30.6in /  1036.1hPa ESE 3.8mph /  6.1km/h 6mph /  9.7km/h 94% 0in /  0.0mm
12:34 32 °F /  0.0 °C 30.2 °F /  -1.0 °C 30.6in /  1036.1hPa ESE 4mph /  6.4km/h 6.5mph /  10.5km/h 93% 0in /  0.0mm
12:39 32.4 °F /  0.2 °C 30.6 °F /  -0.8 °C 30.6in /  1036.1hPa SE 4.9mph /  7.9km/h 6.5mph /  10.5km/h 93% 0in /  0.0mm
12:44 32.7 °F /  0.4 °C 31.3 °F /  -0.4 °C 30.6in /  1036.1hPa ESE 3.4mph /  5.5km/h 5.4mph /  8.7km/h 94% 0in /  0.0mm
12:49 32.5 °F /  0.3 °C 30.7 °F /  -0.7 °C 30.6in /  1036.1hPa East 3.8mph /  6.1km/h 4.9mph /  7.9km/h 93% 0in /  0.0mm
12:54 33.4 °F /  0.8 °C 31.8 °F /  -0.1 °C 30.6in /  1036.1hPa ESE 3.6mph /  5.8km/h 4.9mph /  7.9km/h 94% 0in /  0.0mm
12:59 33.6 °F /  0.9 °C 31.8 °F /  -0.1 °C 30.6in /  1036.1hPa East 5.4mph /  8.7km/h 6mph /  9.7km/h 93% 0in /  0.0mm
13:04 33.3 °F /  0.7 °C 30.9 °F /  -0.6 °C 30.6in /  1036.1hPa ESE 4.7mph /  7.6km/h 6.7mph /  10.8km/h 91% 0in /  0.0mm
13:09 33.1 °F /  0.6 °C 30.4 °F /  -0.9 °C 30.6in /  1036.1hPa ESE 4.3mph /  6.9km/h 6.7mph /  10.8km/h 90% 0in /  0.0mm
13:14 33.3 °F /  0.7 °C 30.6 °F /  -0.8 °C 30.6in /  1036.1hPa SE 4.7mph /  7.6km/h 6.3mph /  10.1km/h 90% 0in /  0.0mm
13:19 33.6 °F /  0.9 °C 30.9 °F /  -0.6 °C 30.6in /  1036.1hPa ENE 3.8mph /  6.1km/h 6mph /  9.7km/h 90% 0in /  0.0mm
13:24 33.6 °F /  0.9 °C 30.9 °F /  -0.6 °C 30.6in /  1036.1hPa ESE 5.4mph /  8.7km/h 5.6mph /  9.0km/h 90% 0in /  0.0mm
13:29 33.6 °F /  0.9 °C 30.7 °F /  -0.7 °C 30.6in /  1036.1hPa ESE 4.3mph /  6.9km/h 6mph /  9.7km/h 89% 0in /  0.0mm
13:34 33.6 °F /  0.9 °C 30.7 °F /  -0.7 °C 30.6in /  1036.1hPa ESE 3.8mph /  6.1km/h 6mph /  9.7km/h 89% 0in /  0.0mm
13:39 33.6 °F /  0.9 °C 30.7 °F /  -0.7 °C 30.6in /  1036.1hPa East 3.1mph /  5.0km/h 5.6mph /  9.0km/h 89% 0in /  0.0mm
13:44 33.8 °F /  1.0 °C 30.6 °F /  -0.8 °C 30.6in /  1036.1hPa ENE 4.9mph /  7.9km/h 4.9mph /  7.9km/h 88% 0in /  0.0mm
13:49 33.6 °F /  0.9 °C 30.7 °F /  -0.7 °C 30.6in /  1036.1hPa NE 4.7mph /  7.6km/h 6.3mph /  10.1km/h 89% 0in /  0.0mm
13:54 33.6 °F /  0.9 °C 30.7 °F /  -0.7 °C 30.6in /  1036.1hPa East 3.1mph /  5.0km/h 6.3mph /  10.1km/h 89% 0in /  0.0mm
13:59 33.4 °F /  0.8 °C 30.6 °F /  -0.8 °C 30.6in /  1036.1hPa NE 4.3mph /  6.9km/h 6mph /  9.7km/h 89% 0in /  0.0mm
14:04 33.3 °F /  0.7 °C 30 °F /  -1.1 °C 30.6in /  1036.1hPa ENE 3.8mph /  6.1km/h 7.2mph /  11.6km/h 88% 0in /  0.0mm
14:09 33.1 °F /  0.6 °C 29.8 °F /  -1.2 °C 30.6in /  1036.1hPa ENE 3.8mph /  6.1km/h 7.2mph /  11.6km/h 88% 0in /  0.0mm
14:14 33.4 °F /  0.8 °C 30.2 °F /  -1.0 °C 30.6in /  1036.1hPa ESE 2.9mph /  4.7km/h 4.5mph /  7.2km/h 88% 0in /  0.0mm
14:19 33.4 °F /  0.8 °C 30.2 °F /  -1.0 °C 30.6in /  1036.1hPa ENE 4.3mph /  6.9km/h 5.8mph /  9.3km/h 88% 0in /  0.0mm
14:24 33.6 °F /  0.9 °C 30.4 °F /  -0.9 °C 30.6in /  1036.1hPa East 1.6mph /  2.6km/h 5.8mph /  9.3km/h 88% 0in /  0.0mm
14:29 33.8 °F /  1.0 °C 30.6 °F /  -0.8 °C 30.6in /  1036.1hPa NE 5.4mph /  8.7km/h 6mph /  9.7km/h 88% 0in /  0.0mm
14:34 33.8 °F /  1.0 °C 30.6 °F /  -0.8 °C 30.6in /  1036.1hPa ENE 5.6mph /  9.0km/h 6mph /  9.7km/h 88% 0in /  0.0mm
14:39 33.8 °F /  1.0 °C 30.4 °F /  -0.9 °C 30.6in /  1035.1hPa NE 3.4mph /  5.5km/h 6.3mph /  10.1km/h 87% 0in /  0.0mm
14:44 33.8 °F /  1.0 °C 30.4 °F /  -0.9 °C 30.6in /  1035.1hPa NE 5.4mph /  8.7km/h 6.5mph /  10.5km/h 87% 0in /  0.0mm
14:49 34 °F /  1.1 °C 30.6 °F /  -0.8 °C 30.6in /  1035.1hPa NE 4.3mph /  6.9km/h 6.5mph /  10.5km/h 87% 0in /  0.0mm
14:54 34 °F /  1.1 °C 30.2 °F /  -1.0 °C 30.6in /  1036.1hPa ENE 3.1mph /  5.0km/h 5.8mph /  9.3km/h 86% 0in /  0.0mm
14:59 34 °F /  1.1 °C 30.2 °F /  -1.0 °C 30.6in /  1036.1hPa NE 5.4mph /  8.7km/h 5.8mph /  9.3km/h 86% 0in /  0.0mm
15:04 33.8 °F /  1.0 °C 30 °F /  -1.1 °C 30.6in /  1036.1hPa ENE 4.3mph /  6.9km/h 5.8mph /  9.3km/h 86% 0in /  0.0mm
15:09 33.8 °F /  1.0 °C 30 °F /  -1.1 °C 30.6in /  1035.1hPa East 4.7mph /  7.6km/h 5.8mph /  9.3km/h 86% 0in /  0.0mm
15:14 33.6 °F /  0.9 °C 29.8 °F /  -1.2 °C 30.6in /  1035.1hPa NNE 5.6mph /  9.0km/h 6.3mph /  10.1km/h 86% 0in /  0.0mm
15:19 33.6 °F /  0.9 °C 29.8 °F /  -1.2 °C 30.6in /  1035.1hPa NE 3.8mph /  6.1km/h 6.3mph /  10.1km/h 86% 0in /  0.0mm
15:25 33.6 °F /  0.9 °C 29.8 °F /  -1.2 °C 30.6in /  1035.1hPa NE 4.9mph /  7.9km/h 6.3mph /  10.1km/h 86% 0in /  0.0mm
15:30 33.6 °F /  0.9 °C 29.8 °F /  -1.2 °C 30.6in /  1035.1hPa East 3.6mph /  5.8km/h 5.8mph /  9.3km/h 86% 0in /  0.0mm
15:34 33.6 °F /  0.9 °C 29.8 °F /  -1.2 °C 30.6in /  1035.1hPa NE 5.6mph /  9.0km/h 6.3mph /  10.1km/h 86% 0in /  0.0mm
15:40 33.6 °F /  0.9 °C 29.8 °F /  -1.2 °C 30.6in /  1036.1hPa NE 2.2mph /  3.5km/h 7.4mph /  11.9km/h 86% 0in /  0.0mm
15:44 33.6 °F /  0.9 °C 29.8 °F /  -1.2 °C 30.6in /  1036.1hPa East 4.3mph /  6.9km/h 7.4mph /  11.9km/h 86% 0in /  0.0mm
15:50 33.6 °F /  0.9 °C 29.8 °F /  -1.2 °C 30.6in /  1036.1hPa NE 3.8mph /  6.1km/h 6.3mph /  10.1km/h 86% 0in /  0.0mm
15:55 33.4 °F /  0.8 °C 29.5 °F /  -1.4 °C 30.6in /  1036.1hPa ENE 2.7mph /  4.3km/h 6.5mph /  10.5km/h 85% 0in /  0.0mm
16:00 33.4 °F /  0.8 °C 29.5 °F /  -1.4 °C 30.6in /  1036.1hPa East 4.9mph /  7.9km/h 6.5mph /  10.5km/h 85% 0in /  0.0mm
16:05 33.4 °F /  0.8 °C 29.5 °F /  -1.4 °C 30.6in /  1036.1hPa NE 6mph /  9.7km/h 6mph /  9.7km/h 85% 0in /  0.0mm
16:10 33.3 °F /  0.7 °C 29.1 °F /  -1.6 °C 30.6in /  1036.1hPa ENE 3.6mph /  5.8km/h 6mph /  9.7km/h 85% 0in /  0.0mm
16:14 33.3 °F /  0.7 °C 29.1 °F /  -1.6 °C 30.6in /  1036.1hPa NE 3.4mph /  5.5km/h 6mph /  9.7km/h 85% 0in /  0.0mm
16:19 33.1 °F /  0.6 °C 28.9 °F /  -1.7 °C 30.6in /  1036.1hPa ENE 4mph /  6.4km/h 5.8mph /  9.3km/h 85% 0in /  0.0mm
16:24 32.7 °F /  0.4 °C 28.8 °F /  -1.8 °C 30.6in /  1036.1hPa NE 3.1mph /  5.0km/h 5.8mph /  9.3km/h 85% 0in /  0.0mm
16:30 32.5 °F /  0.3 °C 28.2 °F /  -2.1 °C 30.6in /  1036.1hPa NE 3.8mph /  6.1km/h 5.6mph /  9.0km/h 84% 0in /  0.0mm
16:34 32.4 °F /  0.2 °C 28.2 °F /  -2.1 °C 30.6in /  1036.1hPa NE 3.6mph /  5.8km/h 4.3mph /  6.9km/h 85% 0in /  0.0mm
16:40 32.2 °F /  0.1 °C 28.2 °F /  -2.1 °C 30.6in /  1036.1hPa NE 3.4mph /  5.5km/h 4.3mph /  6.9km/h 85% 0in /  0.0mm
16:44 32 °F /  0.0 °C 28 °F /  -2.2 °C 30.6in /  1036.1hPa NE 2.7mph /  4.3km/h 4.3mph /  6.9km/h 85% 0in /  0.0mm
16:49 31.6 °F /  -0.2 °C 27.7 °F /  -2.4 °C 30.6in /  1036.1hPa NE 4mph /  6.4km/h 5.6mph /  9.0km/h 85% 0in /  0.0mm
16:54 31.5 °F /  -0.3 °C 27.9 °F /  -2.3 °C 30.6in /  1036.1hPa NNE 2.9mph /  4.7km/h 5.6mph /  9.0km/h 86% 0in /  0.0mm
17:00 31.3 °F /  -0.4 °C 27.7 °F /  -2.4 °C 30.6in /  1036.1hPa NE 3.4mph /  5.5km/h 5.4mph /  8.7km/h 86% 0in /  0.0mm
17:05 31.1 °F /  -0.5 °C 27.7 °F /  -2.4 °C 30.6in /  1036.1hPa North 3.8mph /  6.1km/h 6.3mph /  10.1km/h 87% 0in /  0.0mm
17:10 30.9 °F /  -0.6 °C 27.5 °F /  -2.5 °C 30.6in /  1037.1hPa NNE 4mph /  6.4km/h 6.3mph /  10.1km/h 87% 0in /  0.0mm
17:15 30.7 °F /  -0.7 °C 27.3 °F /  -2.6 °C 30.6in /  1037.1hPa NNE 3.6mph /  5.8km/h 5.4mph /  8.7km/h 87% 0in /  0.0mm
17:20 30.6 °F /  -0.8 °C 27.1 °F /  -2.7 °C 30.6in /  1037.1hPa NE 4.3mph /  6.9km/h 5.4mph /  8.7km/h 87% 0in /  0.0mm
17:25 30.6 °F /  -0.8 °C 27.5 °F /  -2.5 °C 30.6in /  1037.1hPa NE 4mph /  6.4km/h 5.8mph /  9.3km/h 88% 0in /  0.0mm
17:30 30.4 °F /  -0.9 °C 27.3 °F /  -2.6 °C 30.6in /  1037.1hPa NE 4mph /  6.4km/h 5.8mph /  9.3km/h 88% 0in /  0.0mm
17:35 30.2 °F /  -1.0 °C 27.3 °F /  -2.6 °C 30.6in /  1037.1hPa NNE 4mph /  6.4km/h 4.9mph /  7.9km/h 89% 0in /  0.0mm
17:40 30.2 °F /  -1.0 °C 27.3 °F /  -2.6 °C 30.6in /  1037.1hPa NE 2.9mph /  4.7km/h 6mph /  9.7km/h 89% 0in /  0.0mm
17:45 30.2 °F /  -1.0 °C 27.3 °F /  -2.6 °C 30.6in /  1037.1hPa NNE 4mph /  6.4km/h 6mph /  9.7km/h 89% 0in /  0.0mm
17:50 30.2 °F /  -1.0 °C 27.3 °F /  -2.6 °C 30.6in /  1037.1hPa NNE 3.8mph /  6.1km/h 5.6mph /  9.0km/h 89% 0in /  0.0mm
17:55 30 °F /  -1.1 °C 27.1 °F /  -2.7 °C 30.6in /  1037.1hPa NNE 3.8mph /  6.1km/h 5.6mph /  9.0km/h 89% 0in /  0.0mm
18:00 29.8 °F /  -1.2 °C 27.3 °F /  -2.6 °C 30.6in /  1037.1hPa NNE 3.6mph /  5.8km/h 4.9mph /  7.9km/h 90% 0in /  0.0mm
18:05 29.8 °F /  -1.2 °C 27.3 °F /  -2.6 °C 30.6in /  1037.1hPa ENE 4.7mph /  7.6km/h 5.4mph /  8.7km/h 90% 0in /  0.0mm
18:10 29.7 °F /  -1.3 °C 27.1 °F /  -2.7 °C 30.6in /  1037.1hPa NE 4mph /  6.4km/h 5.4mph /  8.7km/h 90% 0in /  0.0mm
18:15 29.5 °F /  -1.4 °C 27 °F /  -2.8 °C 30.6in /  1037.1hPa NE 4.9mph /  7.9km/h 5.4mph /  8.7km/h 90% 0in /  0.0mm
18:20 29.5 °F /  -1.4 °C 27 °F /  -2.8 °C 30.6in /  1037.1hPa NNE 4mph /  6.4km/h 5.6mph /  9.0km/h 90% 0in /  0.0mm
18:25 29.5 °F /  -1.4 °C 27 °F /  -2.8 °C 30.6in /  1037.1hPa NE 4.5mph /  7.2km/h 5.6mph /  9.0km/h 90% 0in /  0.0mm
18:30 29.5 °F /  -1.4 °C 27.1 °F /  -2.7 °C 30.6in /  1037.1hPa NNE 2.7mph /  4.3km/h 5.4mph /  8.7km/h 91% 0in /  0.0mm
18:35 29.5 °F /  -1.4 °C 27.1 °F /  -2.7 °C 30.6in /  1037.1hPa NNE 3.8mph /  6.1km/h 7.4mph /  11.9km/h 91% 0in /  0.0mm
18:40 29.5 °F /  -1.4 °C 27.1 °F /  -2.7 °C 30.6in /  1037.1hPa NE 3.4mph /  5.5km/h 7.4mph /  11.9km/h 91% 0in /  0.0mm
18:45 29.5 °F /  -1.4 °C 27.1 °F /  -2.7 °C 30.6in /  1037.1hPa NE 4.9mph /  7.9km/h 6mph /  9.7km/h 91% 0in /  0.0mm
18:50 29.5 °F /  -1.4 °C 27.1 °F /  -2.7 °C 30.6in /  1037.1hPa NE 4.9mph /  7.9km/h 6mph /  9.7km/h 91% 0in /  0.0mm
18:55 29.5 °F /  -1.4 °C 27.5 °F /  -2.5 °C 30.6in /  1037.1hPa ENE 4mph /  6.4km/h 6mph /  9.7km/h 92% 0in /  0.0mm
19:00 29.5 °F /  -1.4 °C 27.5 °F /  -2.5 °C 30.6in /  1037.1hPa NE 3.6mph /  5.8km/h 5.8mph /  9.3km/h 92% 0in /  0.0mm
19:05 29.5 °F /  -1.4 °C 27.3 °F /  -2.6 °C 30.6in /  1037.1hPa NE 4.9mph /  7.9km/h 5.8mph /  9.3km/h 92% 0in /  0.0mm
19:10 29.5 °F /  -1.4 °C 27.3 °F /  -2.6 °C 30.7in /  1038.1hPa NE 4mph /  6.4km/h 5.8mph /  9.3km/h 92% 0in /  0.0mm
19:15 29.1 °F /  -1.6 °C 27.1 °F /  -2.7 °C 30.7in /  1038.1hPa NNE 5.6mph /  9.0km/h 5.8mph /  9.3km/h 92% 0in /  0.0mm
19:20 28.9 °F /  -1.7 °C 27 °F /  -2.8 °C 30.7in /  1038.1hPa NE 4.3mph /  6.9km/h 5.8mph /  9.3km/h 92% 0in /  0.0mm
19:25 28.8 °F /  -1.8 °C 26.8 °F /  -2.9 °C 30.6in /  1037.1hPa NE 4.3mph /  6.9km/h 6mph /  9.7km/h 92% 0in /  0.0mm
19:30 28.8 °F /  -1.8 °C 26.8 °F /  -2.9 °C 30.6in /  1037.1hPa ENE 4.3mph /  6.9km/h 6mph /  9.7km/h 92% 0in /  0.0mm
19:35 28.8 °F /  -1.8 °C 26.8 °F /  -2.9 °C 30.6in /  1037.1hPa ENE 3.6mph /  5.8km/h 4.7mph /  7.6km/h 92% 0in /  0.0mm
19:40 28.8 °F /  -1.8 °C 26.8 °F /  -2.9 °C 30.6in /  1037.1hPa ENE 4.3mph /  6.9km/h 4.7mph /  7.6km/h 92% 0in /  0.0mm
19:45 28.8 °F /  -1.8 °C 26.8 °F /  -2.9 °C 30.6in /  1037.1hPa ENE 2.9mph /  4.7km/h 4.3mph /  6.9km/h 92% 0in /  0.0mm
19:50 28.6 °F /  -1.9 °C 26.6 °F /  -3.0 °C 30.6in /  1037.1hPa NE 3.4mph /  5.5km/h 4.3mph /  6.9km/h 92% 0in /  0.0mm
19:55 28.6 °F /  -1.9 °C 26.6 °F /  -3.0 °C 30.6in /  1037.1hPa ENE 3.8mph /  6.1km/h 4.3mph /  6.9km/h 92% 0in /  0.0mm
20:00 28.6 °F /  -1.9 °C 26.6 °F /  -3.0 °C 30.6in /  1037.1hPa NE 3.1mph /  5.0km/h 4mph /  6.4km/h 92% 0in /  0.0mm
20:05 28.6 °F /  -1.9 °C 26.6 °F /  -3.0 °C 30.6in /  1037.1hPa NE 3.8mph /  6.1km/h 4mph /  6.4km/h 92% 0in /  0.0mm
20:10 28.6 °F /  -1.9 °C 26.8 °F /  -2.9 °C 30.6in /  1037.1hPa NE 4mph /  6.4km/h 4mph /  6.4km/h 93% 0in /  0.0mm
20:15 28.6 °F /  -1.9 °C 26.8 °F /  -2.9 °C 30.6in /  1037.1hPa NE 3.6mph /  5.8km/h 4.7mph /  7.6km/h 93% 0in /  0.0mm
20:20 28.6 °F /  -1.9 °C 26.8 °F /  -2.9 °C 30.6in /  1037.1hPa NE 3.8mph /  6.1km/h 4.7mph /  7.6km/h 93% 0in /  0.0mm
20:25 28.2 °F /  -2.1 °C 26.4 °F /  -3.1 °C 30.6in /  1037.1hPa NE 2.9mph /  4.7km/h 4.7mph /  7.6km/h 93% 0in /  0.0mm
20:30 28 °F /  -2.2 °C 26.4 °F /  -3.1 °C 30.6in /  1037.1hPa NE 3.6mph /  5.8km/h 4.3mph /  6.9km/h 93% 0in /  0.0mm
20:35 28.2 °F /  -2.1 °C 26.4 °F /  -3.1 °C 30.6in /  1037.1hPa NE 4mph /  6.4km/h 4mph /  6.4km/h 93% 0in /  0.0mm
20:40 28.2 °F /  -2.1 °C 26.4 °F /  -3.1 °C 30.6in /  1037.1hPa NNE 3.8mph /  6.1km/h 4.9mph /  7.9km/h 93% 0in /  0.0mm
20:45 28.2 °F /  -2.1 °C 26.8 °F /  -2.9 °C 30.6in /  1037.1hPa NE 4.3mph /  6.9km/h 5.4mph /  8.7km/h 94% 0in /  0.0mm
20:50 28.2 °F /  -2.1 °C 26.8 °F /  -2.9 °C 30.6in /  1037.1hPa NE 4.7mph /  7.6km/h 5.8mph /  9.3km/h 94% 0in /  0.0mm
20:55 28 °F /  -2.2 °C 26.6 °F /  -3.0 °C 30.6in /  1037.1hPa NE 3.8mph /  6.1km/h 5.8mph /  9.3km/h 94% 0in /  0.0mm
21:00 28 °F /  -2.2 °C 26.6 °F /  -3.0 °C 30.6in /  1037.1hPa ENE 3.6mph /  5.8km/h 4.7mph /  7.6km/h 94% 0in /  0.0mm
21:05 28 °F /  -2.2 °C 26.6 °F /  -3.0 °C 30.6in /  1037.1hPa NE 4.9mph /  7.9km/h 4.9mph /  7.9km/h 94% 0in /  0.0mm
21:10 28.2 °F /  -2.1 °C 26.8 °F /  -2.9 °C 30.6in /  1036.1hPa ENE 4.3mph /  6.9km/h 5.6mph /  9.0km/h 94% 0in /  0.0mm
21:15 28.2 °F /  -2.1 °C 26.8 °F /  -2.9 °C 30.6in /  1036.1hPa NE 4.9mph /  7.9km/h 5.8mph /  9.3km/h 94% 0in /  0.0mm
21:20 28.2 °F /  -2.1 °C 26.8 °F /  -2.9 °C 30.6in /  1036.1hPa NNE 3.8mph /  6.1km/h 5.8mph /  9.3km/h 94% 0in /  0.0mm
21:25 28 °F /  -2.2 °C 26.6 °F /  -3.0 °C 30.6in /  1037.1hPa NNE 4mph /  6.4km/h 5.8mph /  9.3km/h 94% 0in /  0.0mm
21:30 28 °F /  -2.2 °C 26.6 °F /  -3.0 °C 30.6in /  1037.1hPa NE 5.4mph /  8.7km/h 5.8mph /  9.3km/h 94% 0in /  0.0mm
21:35 28 °F /  -2.2 °C 26.6 °F /  -3.0 °C 30.6in /  1037.1hPa North 4mph /  6.4km/h 5.8mph /  9.3km/h 94% 0in /  0.0mm
21:40 27.9 °F /  -2.3 °C 26.4 °F /  -3.1 °C 30.6in /  1037.1hPa NNE 5.6mph /  9.0km/h 6mph /  9.7km/h 94% 0in /  0.0mm
21:45 27.9 °F /  -2.3 °C 26.4 °F /  -3.1 °C 30.6in /  1037.1hPa NNE 5.6mph /  9.0km/h 6mph /  9.7km/h 94% 0in /  0.0mm
21:50 27.9 °F /  -2.3 °C 26.4 °F /  -3.1 °C 30.6in /  1037.1hPa NNE 4.9mph /  7.9km/h 6.5mph /  10.5km/h 94% 0in /  0.0mm
21:55 27.9 °F /  -2.3 °C 26.4 °F /  -3.1 °C 30.6in /  1037.1hPa NE 5.8mph /  9.3km/h 6.5mph /  10.5km/h 94% 0in /  0.0mm
22:00 27.9 °F /  -2.3 °C 26.4 °F /  -3.1 °C 30.6in /  1037.1hPa NE 4.9mph /  7.9km/h 6.3mph /  10.1km/h 94% 0in /  0.0mm
22:05 27.9 °F /  -2.3 °C 26.4 °F /  -3.1 °C 30.6in /  1037.1hPa NE 3.6mph /  5.8km/h 6.5mph /  10.5km/h 94% 0in /  0.0mm
22:10 28 °F /  -2.2 °C 27 °F /  -2.8 °C 30.6in /  1037.1hPa East 4.5mph /  7.2km/h 7.6mph /  12.2km/h 95% 0in /  0.0mm
22:15 28 °F /  -2.2 °C 27 °F /  -2.8 °C 30.6in /  1037.1hPa ENE 5.6mph /  9.0km/h 7.6mph /  12.2km/h 95% 0in /  0.0mm
22:20 27.9 °F /  -2.3 °C 26.8 °F /  -2.9 °C 30.6in /  1037.1hPa NE 4.9mph /  7.9km/h 6mph /  9.7km/h 95% 0in /  0.0mm
22:25 27.9 °F /  -2.3 °C 26.8 °F /  -2.9 °C 30.6in /  1036.1hPa ENE 6mph /  9.7km/h 6.5mph /  10.5km/h 95% 0in /  0.0mm
22:30 27.9 °F /  -2.3 °C 26.8 °F /  -2.9 °C 30.6in /  1036.1hPa NE 5.8mph /  9.3km/h 6.5mph /  10.5km/h 95% 0in /  0.0mm
22:35 27.9 °F /  -2.3 °C 26.8 °F /  -2.9 °C 30.6in /  1036.1hPa NE 6.5mph /  10.5km/h 6.5mph /  10.5km/h 95% 0in /  0.0mm
22:40 27.9 °F /  -2.3 °C 26.8 °F /  -2.9 °C 30.6in /  1036.1hPa NNE 5.6mph /  9.0km/h 7.8mph /  12.6km/h 95% 0in /  0.0mm
22:45 27.9 °F /  -2.3 °C 26.8 °F /  -2.9 °C 30.6in /  1036.1hPa NNE 5.8mph /  9.3km/h 7.8mph /  12.6km/h 95% 0in /  0.0mm
22:50 27.9 °F /  -2.3 °C 26.8 °F /  -2.9 °C 30.6in /  1036.1hPa NE 5.4mph /  8.7km/h 7.4mph /  11.9km/h 95% 0in /  0.0mm
22:55 27.9 °F /  -2.3 °C 26.4 °F /  -3.1 °C 30.6in /  1037.1hPa NNE 6.3mph /  10.1km/h 7.4mph /  11.9km/h 95% 0in /  0.0mm
23:00 27.9 °F /  -2.3 °C 26.4 °F /  -3.1 °C 30.6in /  1037.1hPa NE 5.4mph /  8.7km/h 7.2mph /  11.6km/h 95% 0in /  0.0mm
23:05 27.9 °F /  -2.3 °C 26.4 °F /  -3.1 °C 30.6in /  1037.1hPa NE 6mph /  9.7km/h 7.2mph /  11.6km/h 95% 0in /  0.0mm
23:10 27.9 °F /  -2.3 °C 26.8 °F /  -2.9 °C 30.6in /  1037.1hPa ENE 5.6mph /  9.0km/h 6.5mph /  10.5km/h 95% 0in /  0.0mm
23:15 27.9 °F /  -2.3 °C 26.8 °F /  -2.9 °C 30.6in /  1037.1hPa ENE 5.8mph /  9.3km/h 7.6mph /  12.2km/h 95% 0in /  0.0mm
23:20 27.9 °F /  -2.3 °C 26.8 °F /  -2.9 °C 30.6in /  1037.1hPa NE 4.3mph /  6.9km/h 7.6mph /  12.2km/h 95% 0in /  0.0mm
23:25 27.9 °F /  -2.3 °C 26.8 °F /  -2.9 °C 30.6in /  1037.1hPa NE 4.9mph /  7.9km/h 6.5mph /  10.5km/h 95% 0in /  0.0mm
23:30 27.9 °F /  -2.3 °C 26.4 °F /  -3.1 °C 30.6in /  1037.1hPa NE 6.3mph /  10.1km/h 7.6mph /  12.2km/h 95% 0in /  0.0mm
23:35 27.9 °F /  -2.3 °C 26.4 °F /  -3.1 °C 30.6in /  1037.1hPa ENE 4.9mph /  7.9km/h 7.6mph /  12.2km/h 95% 0in /  0.0mm
23:40 27.9 °F /  -2.3 °C 26.4 °F /  -3.1 °C 30.6in /  1037.1hPa ENE 5.4mph /  8.7km/h 6.5mph /  10.5km/h 95% 0in /  0.0mm
23:45 27.9 °F /  -2.3 °C 26.4 °F /  -3.1 °C 30.6in /  1037.1hPa ENE 4.3mph /  6.9km/h 6.5mph /  10.5km/h 95% 0in /  0.0mm
23:50 27.9 °F /  -2.3 °C 26.4 °F /  -3.1 °C 30.6in /  1037.1hPa ENE 4mph /  6.4km/h 5.8mph /  9.3km/h 95% 0in /  0.0mm
23:55 27.9 °F /  -2.3 °C 26.4 °F /  -3.1 °C 30.6in /  1037.1hPa ENE 4.3mph /  6.9km/h 6mph /  9.7km/h 95% 0in /  0.0mm
Données Historique de Météo Turbie

Mise a jour : 20/05/2018 19:30:13
Généré par Cumulus 1.9.4 (1099)